sensor_id;sensor_type;location;lat;lon;timestamp;P1;durP1;ratioP1;P2;durP2;ratioP2
49193;SDS011;35029;50.804;12.866;2022-12-11T00:00:08;41.47;;;24.97;;
49193;SDS011;35029;50.804;12.866;2022-12-11T00:02:35;43.33;;;25.07;;
49193;SDS011;35029;50.804;12.866;2022-12-11T00:05:01;38.17;;;24.13;;
49193;SDS011;35029;50.804;12.866;2022-12-11T00:07:27;36.63;;;22.40;;
49193;SDS011;35029;50.804;12.866;2022-12-11T00:09:53;37.60;;;23.37;;
49193;SDS011;35029;50.804;12.866;2022-12-11T00:12:18;38.30;;;24.57;;
49193;SDS011;35029;50.804;12.866;2022-12-11T00:14:44;37.47;;;24.33;;
49193;SDS011;35029;50.804;12.866;2022-12-11T00:17:11;39.13;;;23.40;;
49193;SDS011;35029;50.804;12.866;2022-12-11T00:19:37;39.17;;;24.10;;
49193;SDS011;35029;50.804;12.866;2022-12-11T00:22:02;36.30;;;24.00;;
49193;SDS011;35029;50.804;12.866;2022-12-11T00:24:28;40.03;;;24.83;;
49193;SDS011;35029;50.804;12.866;2022-12-11T00:26:54;42.20;;;25.87;;
49193;SDS011;35029;50.804;12.866;2022-12-11T00:29:19;37.33;;;23.60;;
49193;SDS011;35029;50.804;12.866;2022-12-11T00:31:45;38.93;;;25.97;;
49193;SDS011;35029;50.804;12.866;2022-12-11T00:34:11;43.40;;;25.47;;
49193;SDS011;35029;50.804;12.866;2022-12-11T00:36:37;37.73;;;24.23;;
49193;SDS011;35029;50.804;12.866;2022-12-11T00:39:03;39.73;;;25.50;;
49193;SDS011;35029;50.804;12.866;2022-12-11T00:41:30;44.90;;;27.57;;
49193;SDS011;35029;50.804;12.866;2022-12-11T00:43:56;45.00;;;27.00;;
49193;SDS011;35029;50.804;12.866;2022-12-11T00:46:22;44.00;;;26.33;;
49193;SDS011;35029;50.804;12.866;2022-12-11T00:48:47;41.00;;;25.30;;
49193;SDS011;35029;50.804;12.866;2022-12-11T00:51:14;40.93;;;24.77;;
49193;SDS011;35029;50.804;12.866;2022-12-11T00:53:41;38.00;;;24.83;;
49193;SDS011;35029;50.804;12.866;2022-12-11T00:56:11;40.37;;;25.67;;
49193;SDS011;35029;50.804;12.866;2022-12-11T00:58:38;37.13;;;23.48;;
49193;SDS011;35029;50.804;12.866;2022-12-11T01:01:04;39.17;;;25.67;;
49193;SDS011;35029;50.804;12.866;2022-12-11T01:03:33;42.00;;;25.80;;
49193;SDS011;35029;50.804;12.866;2022-12-11T01:06:00;42.67;;;26.27;;
49193;SDS011;35029;50.804;12.866;2022-12-11T01:08:25;44.83;;;27.70;;
49193;SDS011;35029;50.804;12.866;2022-12-11T01:10:59;45.47;;;26.60;;
49193;SDS011;35029;50.804;12.866;2022-12-11T01:13:26;43.43;;;26.37;;
49193;SDS011;35029;50.804;12.866;2022-12-11T01:15:52;41.57;;;24.27;;
49193;SDS011;35029;50.804;12.866;2022-12-11T01:18:17;39.47;;;25.30;;
49193;SDS011;35029;50.804;12.866;2022-12-11T01:20:43;39.60;;;26.40;;
49193;SDS011;35029;50.804;12.866;2022-12-11T01:23:09;40.63;;;25.03;;
49193;SDS011;35029;50.804;12.866;2022-12-11T01:25:37;39.37;;;24.53;;
49193;SDS011;35029;50.804;12.866;2022-12-11T01:28:03;40.77;;;24.90;;
49193;SDS011;35029;50.804;12.866;2022-12-11T01:30:30;40.63;;;25.60;;
49193;SDS011;35029;50.804;12.866;2022-12-11T01:32:55;42.53;;;26.97;;
49193;SDS011;35029;50.804;12.866;2022-12-11T01:35:21;44.53;;;29.00;;
49193;SDS011;35029;50.804;12.866;2022-12-11T01:37:47;51.87;;;29.87;;
49193;SDS011;35029;50.804;12.866;2022-12-11T01:40:14;45.90;;;28.53;;
49193;SDS011;35029;50.804;12.866;2022-12-11T01:42:41;47.65;;;28.10;;
49193;SDS011;35029;50.804;12.866;2022-12-11T01:47:47;44.20;;;27.40;;
49193;SDS011;35029;50.804;12.866;2022-12-11T01:50:13;44.43;;;28.27;;
49193;SDS011;35029;50.804;12.866;2022-12-11T01:52:40;42.60;;;26.70;;
49193;SDS011;35029;50.804;12.866;2022-12-11T01:55:07;42.30;;;27.30;;
49193;SDS011;35029;50.804;12.866;2022-12-11T01:57:35;44.07;;;26.73;;
49193;SDS011;35029;50.804;12.866;2022-12-11T02:00:04;42.15;;;25.52;;
49193;SDS011;35029;50.804;12.866;2022-12-11T02:02:38;43.67;;;26.40;;
49193;SDS011;35029;50.804;12.866;2022-12-11T02:05:04;43.33;;;26.93;;
49193;SDS011;35029;50.804;12.866;2022-12-11T02:07:36;45.20;;;27.80;;
49193;SDS011;35029;50.804;12.866;2022-12-11T02:10:13;39.33;;;24.98;;
49193;SDS011;35029;50.804;12.866;2022-12-11T02:15:24;40.13;;;24.43;;
49193;SDS011;35029;50.804;12.866;2022-12-11T02:21:06;39.67;;;24.57;;
49193;SDS011;35029;50.804;12.866;2022-12-11T02:30:10;43.22;;;25.75;;
49193;SDS011;35029;50.804;12.866;2022-12-11T02:32:24;38.27;;;24.07;;
49193;SDS011;35029;50.804;12.866;2022-12-11T02:34:57;40.40;;;25.20;;
49193;SDS011;35029;50.804;12.866;2022-12-11T02:37:29;37.43;;;24.53;;
49193;SDS011;35029;50.804;12.866;2022-12-11T02:39:56;40.27;;;24.83;;
49193;SDS011;35029;50.804;12.866;2022-12-11T02:42:24;43.50;;;27.17;;
49193;SDS011;35029;50.804;12.866;2022-12-11T02:44:54;38.13;;;24.33;;
49193;SDS011;35029;50.804;12.866;2022-12-11T02:47:22;42.20;;;26.93;;
49193;SDS011;35029;50.804;12.866;2022-12-11T02:49:51;37.47;;;23.97;;
49193;SDS011;35029;50.804;12.866;2022-12-11T02:52:20;38.63;;;24.27;;
49193;SDS011;35029;50.804;12.866;2022-12-11T02:54:47;40.67;;;25.17;;
49193;SDS011;35029;50.804;12.866;2022-12-11T02:57:22;39.93;;;25.93;;
49193;SDS011;35029;50.804;12.866;2022-12-11T02:59:55;35.27;;;23.07;;
49193;SDS011;35029;50.804;12.866;2022-12-11T03:02:21;41.47;;;25.13;;
49193;SDS011;35029;50.804;12.866;2022-12-11T03:04:47;39.33;;;26.20;;
49193;SDS011;35029;50.804;12.866;2022-12-11T03:07:15;39.83;;;25.40;;
49193;SDS011;35029;50.804;12.866;2022-12-11T03:09:45;37.40;;;24.93;;
49193;SDS011;35029;50.804;12.866;2022-12-11T03:12:14;35.47;;;23.63;;
49193;SDS011;35029;50.804;12.866;2022-12-11T03:14:47;42.33;;;25.67;;
49193;SDS011;35029;50.804;12.866;2022-12-11T03:22:20;40.53;;;25.27;;
49193;SDS011;35029;50.804;12.866;2022-12-11T03:27:29;37.75;;;24.35;;
49193;SDS011;35029;50.804;12.866;2022-12-11T03:32:35;33.17;;;21.97;;
49193;SDS011;35029;50.804;12.866;2022-12-11T03:35:25;38.27;;;22.37;;
49193;SDS011;35029;50.804;12.866;2022-12-11T03:38:02;38.80;;;24.20;;
49193;SDS011;35029;50.804;12.866;2022-12-11T03:40:31;37.50;;;23.58;;
49193;SDS011;35029;50.804;12.866;2022-12-11T03:42:59;33.57;;;22.43;;
49193;SDS011;35029;50.804;12.866;2022-12-11T03:45:26;36.83;;;24.33;;
49193;SDS011;35029;50.804;12.866;2022-12-11T03:47:55;39.93;;;25.13;;
49193;SDS011;35029;50.804;12.866;2022-12-11T03:50:23;42.83;;;26.40;;
49193;SDS011;35029;50.804;12.866;2022-12-11T03:52:52;40.63;;;26.10;;
49193;SDS011;35029;50.804;12.866;2022-12-11T03:55:20;41.97;;;25.90;;
49193;SDS011;35029;50.804;12.866;2022-12-11T03:57:46;40.30;;;25.83;;
49193;SDS011;35029;50.804;12.866;2022-12-11T04:00:14;40.67;;;25.73;;
49193;SDS011;35029;50.804;12.866;2022-12-11T04:02:41;39.73;;;24.60;;
49193;SDS011;35029;50.804;12.866;2022-12-11T04:05:08;43.47;;;27.57;;
49193;SDS011;35029;50.804;12.866;2022-12-11T04:07:34;40.07;;;25.00;;
49193;SDS011;35029;50.804;12.866;2022-12-11T04:10:00;39.53;;;24.03;;
49193;SDS011;35029;50.804;12.866;2022-12-11T04:12:26;36.80;;;23.63;;
49193;SDS011;35029;50.804;12.866;2022-12-11T04:14:52;37.93;;;24.40;;
49193;SDS011;35029;50.804;12.866;2022-12-11T04:17:27;36.37;;;22.80;;
49193;SDS011;35029;50.804;12.866;2022-12-11T04:20:13;36.57;;;22.80;;
49193;SDS011;35029;50.804;12.866;2022-12-11T04:22:58;32.90;;;21.83;;
49193;SDS011;35029;50.804;12.866;2022-12-11T04:25:43;37.33;;;22.53;;
49193;SDS011;35029;50.804;12.866;2022-12-11T04:28:09;34.37;;;22.27;;
49193;SDS011;35029;50.804;12.866;2022-12-11T04:30:34;34.57;;;22.80;;
49193;SDS011;35029;50.804;12.866;2022-12-11T04:33:00;33.37;;;21.43;;
49193;SDS011;35029;50.804;12.866;2022-12-11T04:35:27;36.33;;;22.20;;
49193;SDS011;35029;50.804;12.866;2022-12-11T04:37:53;36.97;;;23.57;;
49193;SDS011;35029;50.804;12.866;2022-12-11T04:40:19;34.90;;;22.97;;
49193;SDS011;35029;50.804;12.866;2022-12-11T04:42:45;31.43;;;21.00;;
49193;SDS011;35029;50.804;12.866;2022-12-11T04:45:10;39.77;;;25.00;;
49193;SDS011;35029;50.804;12.866;2022-12-11T04:47:37;36.10;;;23.50;;
49193;SDS011;35029;50.804;12.866;2022-12-11T04:50:05;37.33;;;23.73;;
49193;SDS011;35029;50.804;12.866;2022-12-11T04:52:32;35.13;;;22.47;;
49193;SDS011;35029;50.804;12.866;2022-12-11T04:54:57;31.80;;;19.97;;
49193;SDS011;35029;50.804;12.866;2022-12-11T04:57:23;31.53;;;20.37;;
49193;SDS011;35029;50.804;12.866;2022-12-11T04:59:48;36.47;;;23.03;;
49193;SDS011;35029;50.804;12.866;2022-12-11T05:02:14;36.33;;;22.30;;
49193;SDS011;35029;50.804;12.866;2022-12-11T05:04:41;33.50;;;22.30;;
49193;SDS011;35029;50.804;12.866;2022-12-11T05:07:07;35.27;;;21.67;;
49193;SDS011;35029;50.804;12.866;2022-12-11T05:09:33;33.50;;;20.80;;
49193;SDS011;35029;50.804;12.866;2022-12-11T05:12:00;32.50;;;20.93;;
49193;SDS011;35029;50.804;12.866;2022-12-11T05:14:26;33.70;;;20.30;;
49193;SDS011;35029;50.804;12.866;2022-12-11T05:16:56;32.37;;;20.37;;
49193;SDS011;35029;50.804;12.866;2022-12-11T05:19:24;28.60;;;18.77;;
49193;SDS011;35029;50.804;12.866;2022-12-11T05:21:50;35.80;;;19.77;;
49193;SDS011;35029;50.804;12.866;2022-12-11T05:24:16;29.53;;;18.07;;
49193;SDS011;35029;50.804;12.866;2022-12-11T05:26:42;31.10;;;18.73;;
49193;SDS011;35029;50.804;12.866;2022-12-11T05:29:08;30.47;;;18.27;;
49193;SDS011;35029;50.804;12.866;2022-12-11T05:31:33;30.17;;;17.67;;
49193;SDS011;35029;50.804;12.866;2022-12-11T05:33:59;30.10;;;17.10;;
49193;SDS011;35029;50.804;12.866;2022-12-11T05:36:26;33.57;;;18.50;;
49193;SDS011;35029;50.804;12.866;2022-12-11T05:38:54;30.50;;;17.70;;
49193;SDS011;35029;50.804;12.866;2022-12-11T05:41:22;33.83;;;18.57;;
49193;SDS011;35029;50.804;12.866;2022-12-11T05:43:49;33.97;;;17.73;;
49193;SDS011;35029;50.804;12.866;2022-12-11T05:46:20;32.33;;;18.50;;
49193;SDS011;35029;50.804;12.866;2022-12-11T05:48:48;31.03;;;17.40;;
49193;SDS011;35029;50.804;12.866;2022-12-11T05:51:16;31.60;;;16.63;;
49193;SDS011;35029;50.804;12.866;2022-12-11T05:53:42;31.33;;;17.97;;
49193;SDS011;35029;50.804;12.866;2022-12-11T05:56:10;30.73;;;18.10;;
49193;SDS011;35029;50.804;12.866;2022-12-11T05:58:41;27.85;;;14.95;;
49193;SDS011;35029;50.804;12.866;2022-12-11T06:01:09;30.23;;;16.47;;
49193;SDS011;35029;50.804;12.866;2022-12-11T06:03:39;30.75;;;15.73;;
49193;SDS011;35029;50.804;12.866;2022-12-11T06:06:05;28.27;;;16.13;;
49193;SDS011;35029;50.804;12.866;2022-12-11T06:08:31;26.70;;;15.60;;
49193;SDS011;35029;50.804;12.866;2022-12-11T06:10:58;28.30;;;16.73;;
49193;SDS011;35029;50.804;12.866;2022-12-11T06:13:24;26.80;;;17.30;;
49193;SDS011;35029;50.804;12.866;2022-12-11T06:15:49;28.30;;;16.50;;
49193;SDS011;35029;50.804;12.866;2022-12-11T06:18:15;24.03;;;16.43;;
49193;SDS011;35029;50.804;12.866;2022-12-11T06:20:41;20.80;;;14.00;;
49193;SDS011;35029;50.804;12.866;2022-12-11T06:23:06;22.33;;;14.47;;
49193;SDS011;35029;50.804;12.866;2022-12-11T06:25:32;24.77;;;14.87;;
49193;SDS011;35029;50.804;12.866;2022-12-11T06:27:58;18.90;;;13.40;;
49193;SDS011;35029;50.804;12.866;2022-12-11T06:30:24;24.03;;;14.73;;
49193;SDS011;35029;50.804;12.866;2022-12-11T06:32:50;23.07;;;14.40;;
49193;SDS011;35029;50.804;12.866;2022-12-11T06:35:15;23.03;;;14.10;;
49193;SDS011;35029;50.804;12.866;2022-12-11T06:37:41;22.00;;;14.17;;
49193;SDS011;35029;50.804;12.866;2022-12-11T06:40:08;24.67;;;14.90;;
49193;SDS011;35029;50.804;12.866;2022-12-11T06:42:35;20.77;;;14.67;;
49193;SDS011;35029;50.804;12.866;2022-12-11T06:45:01;21.40;;;14.00;;
49193;SDS011;35029;50.804;12.866;2022-12-11T06:47:28;22.30;;;14.70;;
49193;SDS011;35029;50.804;12.866;2022-12-11T06:49:54;20.80;;;14.77;;
49193;SDS011;35029;50.804;12.866;2022-12-11T06:52:20;21.77;;;14.67;;
49193;SDS011;35029;50.804;12.866;2022-12-11T06:54:47;21.17;;;15.10;;
49193;SDS011;35029;50.804;12.866;2022-12-11T06:57:13;21.20;;;14.37;;
49193;SDS011;35029;50.804;12.866;2022-12-11T06:59:39;21.93;;;14.47;;
49193;SDS011;35029;50.804;12.866;2022-12-11T07:02:05;20.60;;;14.13;;
49193;SDS011;35029;50.804;12.866;2022-12-11T07:04:31;21.20;;;13.73;;
49193;SDS011;35029;50.804;12.866;2022-12-11T07:06:57;19.97;;;14.50;;
49193;SDS011;35029;50.804;12.866;2022-12-11T07:09:24;20.57;;;14.30;;
49193;SDS011;35029;50.804;12.866;2022-12-11T07:11:51;17.87;;;13.63;;
49193;SDS011;35029;50.804;12.866;2022-12-11T07:14:17;21.60;;;14.03;;
49193;SDS011;35029;50.804;12.866;2022-12-11T07:16:43;18.93;;;14.00;;
49193;SDS011;35029;50.804;12.866;2022-12-11T07:19:10;20.50;;;14.60;;
49193;SDS011;35029;50.804;12.866;2022-12-11T07:21:36;19.73;;;13.03;;
49193;SDS011;35029;50.804;12.866;2022-12-11T07:24:02;21.33;;;14.33;;
49193;SDS011;35029;50.804;12.866;2022-12-11T07:26:28;20.60;;;13.27;;
49193;SDS011;35029;50.804;12.866;2022-12-11T07:28:57;27.03;;;15.33;;
49193;SDS011;35029;50.804;12.866;2022-12-11T07:31:24;23.43;;;14.63;;
49193;SDS011;35029;50.804;12.866;2022-12-11T07:33:53;18.67;;;13.03;;
49193;SDS011;35029;50.804;12.866;2022-12-11T07:36:19;18.43;;;13.03;;
49193;SDS011;35029;50.804;12.866;2022-12-11T07:38:45;19.03;;;13.47;;
49193;SDS011;35029;50.804;12.866;2022-12-11T07:41:14;19.80;;;13.97;;
49193;SDS011;35029;50.804;12.866;2022-12-11T07:43:40;20.23;;;13.90;;
49193;SDS011;35029;50.804;12.866;2022-12-11T07:46:11;22.70;;;13.40;;
49193;SDS011;35029;50.804;12.866;2022-12-11T07:48:38;22.20;;;13.57;;
49193;SDS011;35029;50.804;12.866;2022-12-11T07:51:06;23.33;;;13.37;;
49193;SDS011;35029;50.804;12.866;2022-12-11T07:53:39;20.13;;;14.10;;
49193;SDS011;35029;50.804;12.866;2022-12-11T07:56:09;20.03;;;14.30;;
49193;SDS011;35029;50.804;12.866;2022-12-11T07:58:36;21.37;;;14.30;;
49193;SDS011;35029;50.804;12.866;2022-12-11T08:01:09;20.17;;;13.97;;
49193;SDS011;35029;50.804;12.866;2022-12-11T08:03:38;20.97;;;14.43;;
49193;SDS011;35029;50.804;12.866;2022-12-11T08:06:04;20.13;;;13.93;;
49193;SDS011;35029;50.804;12.866;2022-12-11T08:08:31;26.30;;;13.90;;
49193;SDS011;35029;50.804;12.866;2022-12-11T08:11:04;20.50;;;14.00;;
49193;SDS011;35029;50.804;12.866;2022-12-11T08:13:31;20.83;;;14.60;;
49193;SDS011;35029;50.804;12.866;2022-12-11T08:15:57;21.57;;;15.27;;
49193;SDS011;35029;50.804;12.866;2022-12-11T08:18:23;22.90;;;14.80;;
49193;SDS011;35029;50.804;12.866;2022-12-11T08:20:49;24.47;;;14.97;;
49193;SDS011;35029;50.804;12.866;2022-12-11T08:23:15;21.23;;;14.47;;
49193;SDS011;35029;50.804;12.866;2022-12-11T08:25:40;21.27;;;15.80;;
49193;SDS011;35029;50.804;12.866;2022-12-11T08:28:06;21.80;;;14.20;;
49193;SDS011;35029;50.804;12.866;2022-12-11T08:30:31;21.37;;;14.47;;
49193;SDS011;35029;50.804;12.866;2022-12-11T08:32:57;21.63;;;14.10;;
49193;SDS011;35029;50.804;12.866;2022-12-11T08:35:24;22.30;;;15.37;;
49193;SDS011;35029;50.804;12.866;2022-12-11T08:37:50;21.47;;;15.17;;
49193;SDS011;35029;50.804;12.866;2022-12-11T08:40:16;25.37;;;15.53;;
49193;SDS011;35029;50.804;12.866;2022-12-11T08:42:42;25.20;;;16.30;;
49193;SDS011;35029;50.804;12.866;2022-12-11T08:45:08;21.33;;;14.20;;
49193;SDS011;35029;50.804;12.866;2022-12-11T08:47:35;23.60;;;15.10;;
49193;SDS011;35029;50.804;12.866;2022-12-11T08:50:01;20.50;;;14.77;;
49193;SDS011;35029;50.804;12.866;2022-12-11T08:52:27;23.90;;;15.50;;
49193;SDS011;35029;50.804;12.866;2022-12-11T08:54:53;22.13;;;15.87;;
49193;SDS011;35029;50.804;12.866;2022-12-11T08:57:18;21.67;;;15.13;;
49193;SDS011;35029;50.804;12.866;2022-12-11T08:59:44;23.73;;;14.80;;
49193;SDS011;35029;50.804;12.866;2022-12-11T09:02:12;22.43;;;14.00;;
49193;SDS011;35029;50.804;12.866;2022-12-11T09:04:38;22.37;;;15.17;;
49193;SDS011;35029;50.804;12.866;2022-12-11T09:07:04;25.30;;;15.67;;
49193;SDS011;35029;50.804;12.866;2022-12-11T09:09:30;23.27;;;15.33;;
49193;SDS011;35029;50.804;12.866;2022-12-11T09:11:55;27.80;;;15.57;;
49193;SDS011;35029;50.804;12.866;2022-12-11T09:14:21;23.13;;;15.38;;
49193;SDS011;35029;50.804;12.866;2022-12-11T09:16:47;19.65;;;14.15;;
49193;SDS011;35029;50.804;12.866;2022-12-11T09:19:13;22.13;;;14.23;;
49193;SDS011;35029;50.804;12.866;2022-12-11T09:21:39;23.27;;;15.90;;
49193;SDS011;35029;50.804;12.866;2022-12-11T09:24:07;21.23;;;14.00;;
49193;SDS011;35029;50.804;12.866;2022-12-11T09:26:34;22.97;;;16.10;;
49193;SDS011;35029;50.804;12.866;2022-12-11T09:29:02;22.20;;;15.47;;
49193;SDS011;35029;50.804;12.866;2022-12-11T09:31:29;25.03;;;15.70;;
49193;SDS011;35029;50.804;12.866;2022-12-11T09:33:59;25.07;;;15.70;;
49193;SDS011;35029;50.804;12.866;2022-12-11T09:36:27;26.83;;;15.80;;
49193;SDS011;35029;50.804;12.866;2022-12-11T09:38:52;27.70;;;16.00;;
49193;SDS011;35029;50.804;12.866;2022-12-11T09:46:47;20.47;;;14.07;;
49193;SDS011;35029;50.804;12.866;2022-12-11T09:55:20;22.20;;;14.70;;
49193;SDS011;35029;50.804;12.866;2022-12-11T10:08:37;18.77;;;12.43;;
49193;SDS011;35029;50.804;12.866;2022-12-11T10:14:16;19.90;;;13.93;;
49193;SDS011;35029;50.804;12.866;2022-12-11T10:16:55;22.95;;;12.63;;
49193;SDS011;35029;50.804;12.866;2022-12-11T10:19:28;15.67;;;12.33;;
49193;SDS011;35029;50.804;12.866;2022-12-11T10:21:56;17.30;;;12.60;;
49193;SDS011;35029;50.804;12.866;2022-12-11T10:27:08;18.83;;;13.40;;
49193;SDS011;35029;50.804;12.866;2022-12-11T10:29:40;18.30;;;12.93;;
49193;SDS011;35029;50.804;12.866;2022-12-11T10:32:06;18.38;;;12.73;;
49193;SDS011;35029;50.804;12.866;2022-12-11T10:34:53;21.77;;;14.27;;
49193;SDS011;35029;50.804;12.866;2022-12-11T10:37:24;19.08;;;13.45;;
49193;SDS011;35029;50.804;12.866;2022-12-11T10:39:50;17.63;;;11.83;;
49193;SDS011;35029;50.804;12.866;2022-12-11T10:42:17;19.00;;;12.97;;
49193;SDS011;35029;50.804;12.866;2022-12-11T10:44:56;21.13;;;13.43;;
49193;SDS011;35029;50.804;12.866;2022-12-11T10:47:26;19.13;;;13.37;;
49193;SDS011;35029;50.804;12.866;2022-12-11T10:49:53;19.67;;;13.45;;
49193;SDS011;35029;50.804;12.866;2022-12-11T10:52:25;21.35;;;14.13;;
49193;SDS011;35029;50.804;12.866;2022-12-11T10:55:16;21.50;;;13.83;;
49193;SDS011;35029;50.804;12.866;2022-12-11T10:57:45;20.02;;;13.95;;
49193;SDS011;35029;50.804;12.866;2022-12-11T11:00:30;19.07;;;14.23;;
49193;SDS011;35029;50.804;12.866;2022-12-11T11:03:00;21.35;;;15.30;;
49193;SDS011;35029;50.804;12.866;2022-12-11T11:05:31;20.25;;;14.57;;
49193;SDS011;35029;50.804;12.866;2022-12-11T11:13:15;23.03;;;14.13;;
49193;SDS011;35029;50.804;12.866;2022-12-11T11:15:41;20.73;;;13.80;;
49193;SDS011;35029;50.804;12.866;2022-12-11T11:18:11;24.10;;;15.87;;
49193;SDS011;35029;50.804;12.866;2022-12-11T11:20:52;22.30;;;15.10;;
49193;SDS011;35029;50.804;12.866;2022-12-11T11:23:18;17.97;;;13.40;;
49193;SDS011;35029;50.804;12.866;2022-12-11T11:25:52;19.87;;;13.53;;
49193;SDS011;35029;50.804;12.866;2022-12-11T11:28:35;25.15;;;15.43;;
49193;SDS011;35029;50.804;12.866;2022-12-11T11:33:36;21.43;;;14.53;;
49193;SDS011;35029;50.804;12.866;2022-12-11T11:36:31;20.63;;;14.70;;
49193;SDS011;35029;50.804;12.866;2022-12-11T11:41:52;19.87;;;14.23;;
49193;SDS011;35029;50.804;12.866;2022-12-11T11:44:28;20.60;;;14.98;;
49193;SDS011;35029;50.804;12.866;2022-12-11T11:47:02;20.07;;;13.33;;
49193;SDS011;35029;50.804;12.866;2022-12-11T11:52:45;23.57;;;15.53;;
49193;SDS011;35029;50.804;12.866;2022-12-11T11:55:27;24.80;;;16.40;;
49193;SDS011;35029;50.804;12.866;2022-12-11T11:57:59;25.23;;;16.83;;
49193;SDS011;35029;50.804;12.866;2022-12-11T12:00:32;25.70;;;17.70;;
49193;SDS011;35029;50.804;12.866;2022-12-11T12:03:11;26.97;;;16.97;;
49193;SDS011;35029;50.804;12.866;2022-12-11T12:08:13;21.67;;;14.93;;
49193;SDS011;35029;50.804;12.866;2022-12-11T12:13:54;28.97;;;16.80;;
49193;SDS011;35029;50.804;12.866;2022-12-11T12:22:04;23.07;;;15.40;;
49193;SDS011;35029;50.804;12.866;2022-12-11T12:24:54;25.10;;;16.50;;
49193;SDS011;35029;50.804;12.866;2022-12-11T12:30:19;25.30;;;14.63;;
49193;SDS011;35029;50.804;12.866;2022-12-11T12:32:53;19.27;;;13.57;;
49193;SDS011;35029;50.804;12.866;2022-12-11T12:35:35;22.40;;;15.00;;
49193;SDS011;35029;50.804;12.866;2022-12-11T12:41:35;22.23;;;15.27;;
49193;SDS011;35029;50.804;12.866;2022-12-11T12:49:43;24.33;;;16.07;;
49193;SDS011;35029;50.804;12.866;2022-12-11T12:52:14;17.63;;;13.23;;
49193;SDS011;35029;50.804;12.866;2022-12-11T12:55:00;20.97;;;14.00;;
49193;SDS011;35029;50.804;12.866;2022-12-11T12:57:38;23.23;;;14.87;;
49193;SDS011;35029;50.804;12.866;2022-12-11T13:00:11;23.03;;;14.43;;
49193;SDS011;35029;50.804;12.866;2022-12-11T13:02:38;21.40;;;13.13;;
49193;SDS011;35029;50.804;12.866;2022-12-11T13:05:20;19.80;;;13.97;;
49193;SDS011;35029;50.804;12.866;2022-12-11T13:07:48;20.83;;;13.90;;
49193;SDS011;35029;50.804;12.866;2022-12-11T13:10:24;22.73;;;14.73;;
49193;SDS011;35029;50.804;12.866;2022-12-11T13:12:49;24.73;;;15.77;;
49193;SDS011;35029;50.804;12.866;2022-12-11T13:15:22;22.80;;;16.27;;
49193;SDS011;35029;50.804;12.866;2022-12-11T13:17:58;24.47;;;15.97;;
49193;SDS011;35029;50.804;12.866;2022-12-11T13:20:27;22.17;;;15.17;;
49193;SDS011;35029;50.804;12.866;2022-12-11T13:25:31;19.23;;;13.73;;
49193;SDS011;35029;50.804;12.866;2022-12-11T13:28:20;21.10;;;13.80;;
49193;SDS011;35029;50.804;12.866;2022-12-11T13:30:56;23.87;;;14.97;;
49193;SDS011;35029;50.804;12.866;2022-12-11T13:33:28;18.13;;;12.13;;
49193;SDS011;35029;50.804;12.866;2022-12-11T13:36:39;20.60;;;13.53;;
49193;SDS011;35029;50.804;12.866;2022-12-11T13:38:46;20.17;;;13.73;;
49193;SDS011;35029;50.804;12.866;2022-12-11T13:41:42;20.40;;;12.93;;
49193;SDS011;35029;50.804;12.866;2022-12-11T13:44:17;21.52;;;13.27;;
49193;SDS011;35029;50.804;12.866;2022-12-11T13:47:05;20.87;;;14.27;;
49193;SDS011;35029;50.804;12.866;2022-12-11T13:49:39;25.10;;;13.77;;
49193;SDS011;35029;50.804;12.866;2022-12-11T13:52:21;22.33;;;14.13;;
49193;SDS011;35029;50.804;12.866;2022-12-11T13:54:53;20.13;;;14.17;;
49193;SDS011;35029;50.804;12.866;2022-12-11T13:57:21;20.27;;;14.27;;
49193;SDS011;35029;50.804;12.866;2022-12-11T13:59:50;22.80;;;14.97;;
49193;SDS011;35029;50.804;12.866;2022-12-11T14:02:25;20.30;;;14.30;;
49193;SDS011;35029;50.804;12.866;2022-12-11T14:04:57;23.40;;;15.50;;
49193;SDS011;35029;50.804;12.866;2022-12-11T14:07:36;23.53;;;15.63;;
49193;SDS011;35029;50.804;12.866;2022-12-11T14:10:16;25.13;;;16.60;;
49193;SDS011;35029;50.804;12.866;2022-12-11T14:15:23;27.30;;;16.67;;
49193;SDS011;35029;50.804;12.866;2022-12-11T14:17:50;26.53;;;16.10;;
49193;SDS011;35029;50.804;12.866;2022-12-11T14:20:26;27.03;;;17.37;;
49193;SDS011;35029;50.804;12.866;2022-12-11T14:23:07;26.67;;;18.20;;
49193;SDS011;35029;50.804;12.866;2022-12-11T14:25:53;26.50;;;17.50;;
49193;SDS011;35029;50.804;12.866;2022-12-11T14:28:25;33.15;;;17.83;;
49193;SDS011;35029;50.804;12.866;2022-12-11T14:30:58;28.10;;;18.43;;
49193;SDS011;35029;50.804;12.866;2022-12-11T14:33:34;27.03;;;18.27;;
49193;SDS011;35029;50.804;12.866;2022-12-11T14:36:04;29.57;;;17.73;;
49193;SDS011;35029;50.804;12.866;2022-12-11T14:38:32;28.97;;;19.00;;
49193;SDS011;35029;50.804;12.866;2022-12-11T14:41:07;27.58;;;18.70;;
49193;SDS011;35029;50.804;12.866;2022-12-11T14:43:58;31.53;;;19.93;;
49193;SDS011;35029;50.804;12.866;2022-12-11T14:46:39;26.83;;;17.73;;
49193;SDS011;35029;50.804;12.866;2022-12-11T14:51:40;26.30;;;18.33;;
49193;SDS011;35029;50.804;12.866;2022-12-11T14:54:07;32.90;;;20.70;;
49193;SDS011;35029;50.804;12.866;2022-12-11T14:56:46;30.33;;;19.47;;
49193;SDS011;35029;50.804;12.866;2022-12-11T14:59:16;32.03;;;19.70;;
49193;SDS011;35029;50.804;12.866;2022-12-11T15:01:55;28.37;;;19.03;;
49193;SDS011;35029;50.804;12.866;2022-12-11T15:04:29;26.67;;;18.38;;
49193;SDS011;35029;50.804;12.866;2022-12-11T15:06:56;27.47;;;17.37;;
49193;SDS011;35029;50.804;12.866;2022-12-11T15:11:58;25.37;;;17.07;;
49193;SDS011;35029;50.804;12.866;2022-12-11T15:14:34;27.33;;;16.77;;
49193;SDS011;35029;50.804;12.866;2022-12-11T15:16:59;26.03;;;16.47;;
49193;SDS011;35029;50.804;12.866;2022-12-11T15:19:29;24.83;;;16.27;;
49193;SDS011;35029;50.804;12.866;2022-12-11T15:22:03;24.53;;;16.37;;
49193;SDS011;35029;50.804;12.866;2022-12-11T15:24:35;25.60;;;15.60;;
49193;SDS011;35029;50.804;12.866;2022-12-11T15:27:04;27.00;;;17.17;;
49193;SDS011;35029;50.804;12.866;2022-12-11T15:29:34;23.90;;;15.47;;
49193;SDS011;35029;50.804;12.866;2022-12-11T15:34:34;26.53;;;16.07;;
49193;SDS011;35029;50.804;12.866;2022-12-11T15:37:22;25.80;;;15.47;;
49193;SDS011;35029;50.804;12.866;2022-12-11T15:39:49;24.57;;;15.50;;
49193;SDS011;35029;50.804;12.866;2022-12-11T15:42:22;28.30;;;16.97;;
49193;SDS011;35029;50.804;12.866;2022-12-11T15:44:51;26.13;;;18.40;;
49193;SDS011;35029;50.804;12.866;2022-12-11T15:47:22;25.07;;;17.30;;
49193;SDS011;35029;50.804;12.866;2022-12-11T15:49:52;23.40;;;17.33;;
49193;SDS011;35029;50.804;12.866;2022-12-11T15:52:21;29.43;;;18.57;;
49193;SDS011;35029;50.804;12.866;2022-12-11T15:54:47;26.97;;;17.30;;
49193;SDS011;35029;50.804;12.866;2022-12-11T15:57:13;25.50;;;16.13;;
49193;SDS011;35029;50.804;12.866;2022-12-11T15:59:42;26.07;;;16.03;;
49193;SDS011;35029;50.804;12.866;2022-12-11T16:02:10;25.43;;;15.30;;
49193;SDS011;35029;50.804;12.866;2022-12-11T16:04:37;24.60;;;15.40;;